logo
Search for airport 
image banner adimage banner adimage banner ad
image banner ad

GOBD - Aeroport Intl Blaise Diagne - Dakar - Diass

Located in Dakar, Senegal

ICAO - , IATA - DSS

Data provided by Airmate  

General information

Coordinates: N14°40'15" W17°4'22"
Elevation is 290 feet MSL.
Magnetic variation is -6° East
View others Airports in Dakar

Operational data

Special qualification required
Current time UTC:
Current local time:
Weather
METAR: GOBD 162000Z 27009KT 9999 SCT015 28/23 Q1012 NOSIG
TAF: TAF GOBD 161700Z 1618/1724 27010KT 9999 SCT015 PROB30 TEMPO 1622/1704 TS BKN014 FEW020CB
View NOTAMs / SUP AIP / TFR affecting this airport [VIEW]
Communications frequencies: [VIEW]

Runways:

RWY identifierQFULength (ft)Width (ft)SurfaceLDA (ft)
01360°11483197CONC11483
19180°11483197CONC11483

Airport contact information

Address: Dakar Senegal

Satellite view of GOBD